createdAt,value
2023-02-15T00:00:23.486Z,21.97
2023-02-15T00:02:25.359Z,22.18
2023-02-15T00:04:47.118Z,22.33
2023-02-15T00:06:48.736Z,22.37
2023-02-15T00:08:50.086Z,23.04
2023-02-15T00:10:51.382Z,23.36
2023-02-15T00:12:52.723Z,23.30
2023-02-15T00:14:54.076Z,22.87
2023-02-15T00:16:55.812Z,22.67
2023-02-15T00:18:57.160Z,22.66
2023-02-15T00:20:58.491Z,22.70
2023-02-15T00:22:59.832Z,22.71
2023-02-15T00:25:01.131Z,22.72
2023-02-15T00:27:02.557Z,22.74
2023-02-15T00:29:04.035Z,23.12
2023-02-15T00:31:05.429Z,22.26
2023-02-15T00:33:06.820Z,22.75
2023-02-15T00:35:08.308Z,22.83
2023-02-15T00:37:09.671Z,22.90
2023-02-15T00:39:11.110Z,22.90
2023-02-15T00:41:12.418Z,22.86
2023-02-15T00:43:13.717Z,22.88
2023-02-15T00:45:17.273Z,22.82
2023-02-15T00:47:18.664Z,22.85
2023-02-15T00:49:19.958Z,22.92
2023-02-15T00:51:24.077Z,22.86
2023-02-15T00:53:25.385Z,22.81
2023-02-15T00:55:26.715Z,22.78
2023-02-15T00:57:28.030Z,22.91
2023-02-15T00:59:29.399Z,22.97
2023-02-15T01:01:30.781Z,22.97
2023-02-15T01:03:32.108Z,22.97
2023-02-15T01:05:33.445Z,23.09
2023-02-15T01:07:34.763Z,23.43
2023-02-15T01:09:36.062Z,22.70
2023-02-15T01:11:37.380Z,22.18
2023-02-15T01:13:38.704Z,22.29
2023-02-15T01:15:41.872Z,22.42
2023-02-15T01:17:46.717Z,22.62
2023-02-15T01:19:48.084Z,22.69
2023-02-15T01:21:49.377Z,22.79
2023-02-15T01:23:50.681Z,22.84
2023-02-15T01:25:52.016Z,22.98
2023-02-15T01:27:53.402Z,19.42
2023-02-15T01:29:54.748Z,17.57
2023-02-15T01:31:56.166Z,17.43
2023-02-15T01:33:57.493Z,18.56
2023-02-15T01:35:59.253Z,19.82
2023-02-15T01:38:00.900Z,20.59
2023-02-15T01:40:02.274Z,21.05
2023-02-15T01:42:03.677Z,21.34
2023-02-15T01:44:05.033Z,21.59
2023-02-15T01:46:06.336Z,21.77
2023-02-15T01:48:07.644Z,21.91
2023-02-15T01:50:09.011Z,21.98
2023-02-15T01:52:10.347Z,22.08
2023-02-15T01:54:11.665Z,22.13
2023-02-15T01:56:12.956Z,22.17
2023-02-15T01:58:15.087Z,22.21
2023-02-15T02:00:18.088Z,22.24
2023-02-15T02:02:21.824Z,22.26
2023-02-15T02:04:23.175Z,22.28
2023-02-15T02:06:26.015Z,22.28
2023-02-15T02:08:27.717Z,22.28
2023-02-15T02:10:29.050Z,22.30
2023-02-15T02:12:30.783Z,22.29
2023-02-15T02:14:32.142Z,22.26
2023-02-15T02:16:33.441Z,22.22
2023-02-15T02:18:34.751Z,22.15
2023-02-15T02:20:36.123Z,22.09
2023-02-15T02:22:37.439Z,22.02
2023-02-15T02:24:38.733Z,21.98
2023-02-15T02:26:40.067Z,21.95
2023-02-15T02:28:41.374Z,21.91
2023-02-15T02:30:42.771Z,21.84
2023-02-15T02:32:44.075Z,21.79
2023-02-15T02:34:45.413Z,21.78
2023-02-15T02:36:46.742Z,21.76
2023-02-15T02:38:48.038Z,21.75
2023-02-15T02:40:49.374Z,21.72
2023-02-15T02:42:50.683Z,21.70
2023-02-15T02:44:52.011Z,21.65
2023-02-15T02:46:53.441Z,21.63
2023-02-15T02:48:54.877Z,21.61
2023-02-15T02:50:56.235Z,21.62
2023-02-15T02:52:57.572Z,21.62
2023-02-15T02:54:58.887Z,21.60
2023-02-15T02:57:00.199Z,21.60
2023-02-15T02:59:02.168Z,21.60
2023-02-15T03:01:06.767Z,21.60
2023-02-15T03:03:08.417Z,21.60
2023-02-15T03:05:09.747Z,21.58
2023-02-15T03:07:11.049Z,21.56
2023-02-15T03:09:15.351Z,21.58
2023-02-15T03:11:16.696Z,21.55
2023-02-15T03:13:17.996Z,21.53
2023-02-15T03:15:19.339Z,21.53
2023-02-15T03:17:20.677Z,21.59
2023-02-15T03:19:21.974Z,21.61
2023-02-15T03:21:23.353Z,21.60
2023-02-15T03:23:24.740Z,21.58
2023-02-15T03:25:26.079Z,21.59
2023-02-15T03:27:27.368Z,21.61
2023-02-15T03:29:29.915Z,21.61
2023-02-15T03:31:31.341Z,21.57
2023-02-15T03:33:32.680Z,21.52
2023-02-15T03:35:33.970Z,21.46
2023-02-15T03:37:35.305Z,21.22
2023-02-15T03:39:36.738Z,21.21
2023-02-15T03:41:38.051Z,21.20
2023-02-15T03:43:39.422Z,21.22
2023-02-15T03:45:55.397Z,21.25
2023-02-15T03:47:56.754Z,21.28
2023-02-15T03:49:58.672Z,21.35
2023-02-15T03:51:59.955Z,21.44
2023-02-15T03:54:02.226Z,21.57
2023-02-15T03:56:03.858Z,21.67
2023-02-15T03:58:24.176Z,21.73
2023-02-15T04:00:44.200Z,21.79
2023-02-15T04:02:45.557Z,21.82
2023-02-15T04:04:46.867Z,21.85
2023-02-15T04:06:48.165Z,21.85
2023-02-15T04:09:07.981Z,21.85
2023-02-15T04:11:09.292Z,21.86
2023-02-15T04:13:10.638Z,21.87
2023-02-15T04:15:30.648Z,21.90
2023-02-15T04:17:31.938Z,21.86
2023-02-15T04:19:51.823Z,21.80
2023-02-15T04:22:11.730Z,21.78
2023-02-15T04:24:31.674Z,21.73
2023-02-15T04:26:32.988Z,21.70
2023-02-15T04:28:34.272Z,21.67
2023-02-15T04:30:35.625Z,21.66
2023-02-15T04:32:36.986Z,21.64
2023-02-15T04:34:38.293Z,21.63
2023-02-15T04:36:39.591Z,21.65
2023-02-15T04:38:40.931Z,21.67
2023-02-15T04:40:42.302Z,21.67
2023-02-15T04:42:43.685Z,21.65
2023-02-15T04:44:44.990Z,21.63
2023-02-15T04:46:46.332Z,21.61
2023-02-15T04:48:47.636Z,21.57
2023-02-15T04:50:49.107Z,21.55
2023-02-15T04:52:50.618Z,21.52
2023-02-15T04:54:52.025Z,21.50
2023-02-15T04:56:53.355Z,21.50
2023-02-15T04:58:54.648Z,21.49
2023-02-15T05:00:56.010Z,21.47
2023-02-15T05:02:57.405Z,21.48
2023-02-15T05:04:58.732Z,21.43
2023-02-15T05:07:00.142Z,21.39
2023-02-15T05:09:02.185Z,21.33
2023-02-15T05:11:03.492Z,21.30
2023-02-15T05:13:04.802Z,21.28
2023-02-15T05:15:06.084Z,21.25
2023-02-15T05:17:07.393Z,21.25
2023-02-15T05:19:08.811Z,21.25
2023-02-15T05:21:10.187Z,21.25
2023-02-15T05:23:14.505Z,21.30
2023-02-15T05:25:34.775Z,21.40
2023-02-15T05:27:54.855Z,21.53
2023-02-15T05:29:56.228Z,21.60
2023-02-15T05:31:57.900Z,21.63
2023-02-15T05:33:59.303Z,21.67
2023-02-15T05:36:02.153Z,21.78
2023-02-15T05:38:03.867Z,21.86
2023-02-15T05:40:05.207Z,21.90
2023-02-15T05:42:06.531Z,21.93
2023-02-15T05:44:07.866Z,21.94
2023-02-15T05:46:09.181Z,21.95
2023-02-15T05:48:10.524Z,21.94
2023-02-15T05:50:12.330Z,21.96
2023-02-15T05:52:13.648Z,21.94
2023-02-15T05:54:14.984Z,21.90
2023-02-15T05:56:16.319Z,21.87
2023-02-15T05:58:17.647Z,21.86
2023-02-15T06:00:18.971Z,21.83
2023-02-15T06:02:23.349Z,21.79
2023-02-15T06:04:25.054Z,21.75
2023-02-15T06:06:26.361Z,21.72
2023-02-15T06:08:27.650Z,21.71
2023-02-15T06:10:28.979Z,21.71
2023-02-15T06:12:30.287Z,21.68
2023-02-15T06:14:31.649Z,21.64
2023-02-15T06:16:33.039Z,21.64
2023-02-15T06:18:34.349Z,21.63
2023-02-15T06:20:35.695Z,21.62
2023-02-15T06:22:36.999Z,21.60
2023-02-15T06:24:38.559Z,21.58
2023-02-15T06:26:39.915Z,21.57
2023-02-15T06:28:42.140Z,21.60
2023-02-15T06:30:43.545Z,21.61
2023-02-15T06:32:45.032Z,21.60
2023-02-15T06:34:47.516Z,21.58
2023-02-15T06:36:50.024Z,21.60
2023-02-15T06:38:51.361Z,21.60
2023-02-15T06:40:52.743Z,21.58
2023-02-15T06:42:54.058Z,21.57
2023-02-15T06:44:55.448Z,21.54
2023-02-15T06:46:56.797Z,21.59
2023-02-15T06:48:58.121Z,21.59
2023-02-15T06:50:59.452Z,21.60
2023-02-15T06:53:00.783Z,21.61
2023-02-15T06:55:02.119Z,21.61
2023-02-15T06:57:03.467Z,21.61
2023-02-15T06:59:04.758Z,21.60
2023-02-15T07:01:06.097Z,21.63
2023-02-15T07:03:07.454Z,21.69
2023-02-15T07:05:08.931Z,21.71
2023-02-15T07:07:10.491Z,21.71
2023-02-15T07:09:11.797Z,21.72
2023-02-15T07:11:32.063Z,21.73
2023-02-15T07:13:33.415Z,21.78
2023-02-15T07:15:34.756Z,21.77
2023-02-15T07:17:36.672Z,21.75
2023-02-15T07:19:38.304Z,21.75
2023-02-15T07:21:39.635Z,21.75
2023-02-15T07:23:40.955Z,21.72
2023-02-15T07:25:42.295Z,21.71
2023-02-15T07:27:44.765Z,21.68
2023-02-15T07:29:46.052Z,21.65
2023-02-15T07:31:47.358Z,21.62
2023-02-15T07:33:48.716Z,21.59
2023-02-15T07:35:50.037Z,21.57
2023-02-15T07:37:51.369Z,21.56
2023-02-15T07:39:52.683Z,21.53
2023-02-15T07:41:53.985Z,21.55
2023-02-15T07:43:55.328Z,21.61
2023-02-15T07:45:56.671Z,21.60
2023-02-15T07:47:57.979Z,21.65
2023-02-15T07:49:59.315Z,21.64
2023-02-15T07:52:00.634Z,21.62
2023-02-15T07:54:01.966Z,21.60
2023-02-15T07:56:03.800Z,21.61
2023-02-15T07:58:05.220Z,21.61
2023-02-15T08:00:06.559Z,21.61
2023-02-15T08:02:07.843Z,21.63
2023-02-15T08:04:10.524Z,21.60
2023-02-15T08:06:15.048Z,21.58
2023-02-15T08:08:31.668Z,21.55
2023-02-15T08:10:51.688Z,21.55
2023-02-15T08:12:53.015Z,21.59
2023-02-15T08:14:54.303Z,21.73
2023-02-15T08:17:00.126Z,21.89
2023-02-15T08:19:02.247Z,21.41
2023-02-15T08:21:05.782Z,21.07
2023-02-15T08:23:07.077Z,21.42
2023-02-15T08:25:08.380Z,21.46
2023-02-15T08:27:09.735Z,21.50
2023-02-15T08:29:11.108Z,21.52
2023-02-15T08:31:12.484Z,21.53
2023-02-15T08:33:13.878Z,21.60
2023-02-15T08:35:15.193Z,21.64
2023-02-15T08:37:16.503Z,21.67
2023-02-15T08:39:17.807Z,21.05
2023-02-15T08:41:19.922Z,21.90
2023-02-15T08:43:21.221Z,21.96
2023-02-15T08:45:22.636Z,21.97
2023-02-15T08:47:23.996Z,21.94
2023-02-15T08:49:25.315Z,21.85
2023-02-15T08:51:26.710Z,21.66
2023-02-15T08:53:28.064Z,21.74
2023-02-15T08:55:29.360Z,21.83
2023-02-15T08:57:30.733Z,21.85
2023-02-15T08:59:32.025Z,21.87
2023-02-15T09:01:33.398Z,21.87
2023-02-15T09:03:34.763Z,20.81
2023-02-15T09:05:36.043Z,19.70
2023-02-15T09:07:37.590Z,18.73
2023-02-15T09:09:38.892Z,18.30
2023-02-15T09:11:40.204Z,18.07
2023-02-15T09:13:41.872Z,18.02
2023-02-15T09:15:43.176Z,20.06
2023-02-15T09:17:44.524Z,21.11
2023-02-15T09:19:45.818Z,22.37
2023-02-15T09:21:47.125Z,22.53
2023-02-15T09:23:48.421Z,22.65
2023-02-15T09:25:49.754Z,23.44
2023-02-15T09:27:51.049Z,23.29
2023-02-15T09:29:52.394Z,23.29
2023-02-15T09:31:54.707Z,23.50
2023-02-15T09:33:56.084Z,23.51
2023-02-15T09:35:58.051Z,23.52
2023-02-15T09:37:59.340Z,23.59
2023-02-15T09:40:02.158Z,23.85
2023-02-15T09:42:03.486Z,23.73
2023-02-15T09:44:04.826Z,23.32
2023-02-15T09:46:06.230Z,23.69
2023-02-15T09:48:07.587Z,23.96
2023-02-15T09:50:09.943Z,24.09
2023-02-15T09:52:11.259Z,24.02
2023-02-15T09:54:12.552Z,24.13
2023-02-15T09:56:13.853Z,24.27
2023-02-15T09:58:15.145Z,24.14
2023-02-15T10:00:16.634Z,24.03
2023-02-15T10:02:17.972Z,24.30
2023-02-15T10:04:19.279Z,24.44
2023-02-15T10:06:20.868Z,24.54
2023-02-15T10:08:22.213Z,25.01
2023-02-15T10:10:26.512Z,24.94
2023-02-15T10:12:27.867Z,24.31
2023-02-15T10:14:29.460Z,24.05
2023-02-15T10:16:30.807Z,24.11
2023-02-15T10:18:32.133Z,24.64
2023-02-15T10:20:33.475Z,24.77
2023-02-15T10:22:34.771Z,24.81
2023-02-15T10:24:40.500Z,24.59
2023-02-15T10:26:42.264Z,24.58
2023-02-15T10:28:43.570Z,23.69
2023-02-15T10:30:44.941Z,23.29
2023-02-15T10:32:46.316Z,23.00
2023-02-15T10:34:47.615Z,22.89
2023-02-15T10:36:48.913Z,22.78
2023-02-15T10:38:50.254Z,22.68
2023-02-15T10:40:51.553Z,22.62
2023-02-15T10:42:52.856Z,22.57
2023-02-15T10:44:54.172Z,22.50
2023-02-15T10:46:55.483Z,22.46
2023-02-15T10:48:56.852Z,22.43
2023-02-15T10:50:58.188Z,22.39
2023-02-15T10:52:59.725Z,22.36
2023-02-15T10:55:01.091Z,22.33
2023-02-15T10:57:02.436Z,22.33
2023-02-15T10:59:04.065Z,22.30
2023-02-15T11:01:05.670Z,22.30
2023-02-15T11:03:07.176Z,22.33
2023-02-15T11:05:09.766Z,22.36
2023-02-15T11:07:11.163Z,22.38
2023-02-15T11:09:13.843Z,22.41
2023-02-15T11:11:15.151Z,22.45
2023-02-15T11:13:16.486Z,22.49
2023-02-15T11:15:17.827Z,22.50
2023-02-15T11:17:19.136Z,22.54
2023-02-15T11:19:20.475Z,22.57
2023-02-15T11:21:21.782Z,22.57
2023-02-15T11:23:23.112Z,22.60
2023-02-15T11:25:24.445Z,22.62
2023-02-15T11:27:25.760Z,22.64
2023-02-15T11:29:27.097Z,22.25
2023-02-15T11:31:28.441Z,22.66
2023-02-15T11:33:29.824Z,22.60
2023-02-15T11:35:31.165Z,22.61
2023-02-15T11:37:32.491Z,22.61
2023-02-15T11:39:33.832Z,22.63
2023-02-15T11:41:35.249Z,22.65
2023-02-15T11:43:36.584Z,22.66
2023-02-15T11:45:39.367Z,22.67
2023-02-15T11:47:40.682Z,22.66
2023-02-15T11:49:41.972Z,22.65
2023-02-15T11:51:43.412Z,22.63
2023-02-15T11:53:44.815Z,22.62
2023-02-15T11:55:46.151Z,22.60
2023-02-15T11:57:47.443Z,22.58
2023-02-15T11:59:48.777Z,22.56
2023-02-15T12:01:50.108Z,22.55
2023-02-15T12:03:51.530Z,22.54
2023-02-15T12:05:52.891Z,22.52
2023-02-15T12:07:54.212Z,22.48
2023-02-15T12:09:57.272Z,22.46
2023-02-15T12:11:58.736Z,22.45
2023-02-15T12:14:00.182Z,22.42
2023-02-15T12:16:02.190Z,22.44
2023-02-15T12:18:03.543Z,22.48
2023-02-15T12:20:04.883Z,22.47
2023-02-15T12:22:08.036Z,22.88
2023-02-15T12:24:10.630Z,22.91
2023-02-15T12:26:11.976Z,22.83
2023-02-15T12:28:13.314Z,22.70
2023-02-15T12:30:14.686Z,22.46
2023-02-15T12:32:16.065Z,22.42
2023-02-15T12:34:17.657Z,22.36
2023-02-15T12:36:19.001Z,21.41
2023-02-15T12:38:20.326Z,22.18
2023-02-15T12:40:21.773Z,22.09
2023-02-15T12:42:23.144Z,21.97
2023-02-15T12:44:27.061Z,21.91
2023-02-15T12:46:28.411Z,21.85
2023-02-15T12:48:29.770Z,21.90
2023-02-15T12:50:35.173Z,22.04
2023-02-15T12:52:36.636Z,22.22
2023-02-15T12:54:39.435Z,22.41
2023-02-15T12:56:40.832Z,22.55
2023-02-15T12:58:42.202Z,22.65
2023-02-15T13:00:43.618Z,22.70
2023-02-15T13:02:44.967Z,22.71
2023-02-15T13:04:46.324Z,22.63
2023-02-15T13:06:47.822Z,22.49
2023-02-15T13:08:49.131Z,22.40
2023-02-15T13:10:50.435Z,22.34
2023-02-15T13:12:55.041Z,22.35
2023-02-15T13:14:57.065Z,22.36
2023-02-15T13:16:59.270Z,22.40
2023-02-15T13:19:00.623Z,22.45
2023-02-15T13:21:02.577Z,22.45
2023-02-15T13:23:06.105Z,22.47
2023-02-15T13:25:07.453Z,22.47
2023-02-15T13:27:15.444Z,22.48
2023-02-15T13:29:17.464Z,22.53
2023-02-15T13:31:18.866Z,22.54
2023-02-15T13:33:20.257Z,22.56
2023-02-15T13:35:21.743Z,22.56
2023-02-15T13:41:26.360Z,22.56
2023-02-15T13:43:27.697Z,22.53
2023-02-15T13:45:31.468Z,22.51
2023-02-15T13:47:32.810Z,22.47
2023-02-15T13:49:34.099Z,22.46
2023-02-15T13:51:35.440Z,22.47
2023-02-15T13:53:36.895Z,22.46
2023-02-15T13:55:38.293Z,22.45
2023-02-15T13:57:39.585Z,22.44
2023-02-15T13:59:41.708Z,22.40
2023-02-15T14:01:43.380Z,22.28
2023-02-15T14:03:44.703Z,22.12
2023-02-15T14:05:46.555Z,22.03
2023-02-15T14:07:47.903Z,21.95
2023-02-15T14:09:49.212Z,21.89
2023-02-15T14:11:50.545Z,21.85
2023-02-15T14:13:51.878Z,21.82
2023-02-15T14:15:53.172Z,21.82
2023-02-15T14:17:54.471Z,21.81
2023-02-15T14:19:55.989Z,21.79
2023-02-15T14:21:57.283Z,21.79
2023-02-15T14:23:58.628Z,21.80
2023-02-15T14:25:59.923Z,21.77
2023-02-15T14:28:01.273Z,21.77
2023-02-15T14:30:02.735Z,21.80
2023-02-15T14:32:04.407Z,21.85
2023-02-15T14:34:05.827Z,21.90
2023-02-15T14:36:07.464Z,21.92
2023-02-15T14:38:08.860Z,22.01
2023-02-15T14:40:29.073Z,22.05
2023-02-15T14:42:30.903Z,22.02
2023-02-15T14:44:32.344Z,22.01
2023-02-15T14:46:33.687Z,21.98
2023-02-15T14:48:34.987Z,21.94
2023-02-15T14:50:38.260Z,21.90
2023-02-15T14:52:39.579Z,21.84
2023-02-15T14:54:40.879Z,21.80
2023-02-15T14:56:42.181Z,21.75
2023-02-15T14:58:43.479Z,21.72
2023-02-15T15:00:44.846Z,21.68
2023-02-15T15:02:49.661Z,21.64
2023-02-15T15:04:51.127Z,20.97
2023-02-15T15:06:52.420Z,21.54
2023-02-15T15:08:56.716Z,21.51
2023-02-15T15:10:58.023Z,21.49
2023-02-15T15:12:59.327Z,21.46
2023-02-15T15:15:00.663Z,21.44
2023-02-15T15:17:02.823Z,21.41
2023-02-15T15:19:04.252Z,21.39
2023-02-15T15:21:05.607Z,21.36
2023-02-15T15:23:06.904Z,21.34
2023-02-15T15:25:08.205Z,21.32
2023-02-15T15:27:10.288Z,21.30
2023-02-15T15:29:11.591Z,21.29
2023-02-15T15:31:12.997Z,21.29
2023-02-15T15:33:14.399Z,21.28
2023-02-15T15:35:15.748Z,21.27
2023-02-15T15:37:17.098Z,21.27
2023-02-15T15:39:18.535Z,21.25
2023-02-15T15:41:20.678Z,21.27
2023-02-15T15:43:22.016Z,21.28
2023-02-15T15:45:23.363Z,21.32
2023-02-15T15:47:24.777Z,21.38
2023-02-15T15:49:26.232Z,21.42
2023-02-15T15:51:27.619Z,21.48
2023-02-15T15:53:28.906Z,21.57
2023-02-15T15:55:30.235Z,21.63
2023-02-15T15:57:31.552Z,21.68
2023-02-15T15:59:32.871Z,21.69
2023-02-15T16:01:34.335Z,21.72
2023-02-15T16:03:35.704Z,21.74
2023-02-15T16:05:37.213Z,21.75
2023-02-15T16:07:38.556Z,21.76
2023-02-15T16:09:39.931Z,21.76
2023-02-15T16:11:41.251Z,21.74
2023-02-15T16:13:42.571Z,21.70
2023-02-15T16:15:44.115Z,21.65
2023-02-15T16:17:45.516Z,21.62
2023-02-15T16:19:46.850Z,21.57
2023-02-15T16:21:48.151Z,21.52
2023-02-15T16:23:49.459Z,21.49
2023-02-15T16:25:50.804Z,21.44
2023-02-15T16:27:52.692Z,21.40
2023-02-15T16:29:54.145Z,21.36
2023-02-15T16:31:55.511Z,21.33
2023-02-15T16:33:56.843Z,21.33
2023-02-15T16:35:58.279Z,21.31
2023-02-15T16:37:59.700Z,21.30
2023-02-15T16:40:01.006Z,21.28
2023-02-15T16:42:05.224Z,21.25
2023-02-15T16:44:06.522Z,21.25
2023-02-15T16:46:07.836Z,21.22
2023-02-15T16:48:09.139Z,21.21
2023-02-15T16:50:10.549Z,21.20
2023-02-15T16:52:12.010Z,21.20
2023-02-15T16:54:13.343Z,21.18
2023-02-15T16:56:14.688Z,21.19
2023-02-15T16:58:16.067Z,21.18
2023-02-15T17:00:17.396Z,21.20
2023-02-15T17:02:40.125Z,21.21
2023-02-15T17:04:40.579Z,21.25
2023-02-15T17:06:42.066Z,21.31
2023-02-15T17:08:43.388Z,21.36
2023-02-15T17:10:45.992Z,21.42
2023-02-15T17:12:47.759Z,21.50
2023-02-15T17:14:54.817Z,21.58
2023-02-15T17:16:57.409Z,21.63
2023-02-15T17:18:59.860Z,21.67
2023-02-15T17:21:02.186Z,21.70
2023-02-15T17:23:03.552Z,21.73
2023-02-15T17:25:05.466Z,21.74
2023-02-15T17:27:06.812Z,21.75
2023-02-15T17:29:08.113Z,21.73
2023-02-15T17:31:09.615Z,21.69
2023-02-15T17:33:12.495Z,21.65
2023-02-15T17:35:19.927Z,21.60
2023-02-15T17:37:21.281Z,21.58
2023-02-15T17:39:23.371Z,21.53
2023-02-15T17:41:24.683Z,21.49
2023-02-15T17:43:25.968Z,21.45
2023-02-15T17:45:27.355Z,21.40
2023-02-15T17:47:30.131Z,21.35
2023-02-15T17:49:35.369Z,21.31
2023-02-15T17:51:37.441Z,21.27
2023-02-15T17:53:38.746Z,21.24
2023-02-15T17:55:40.085Z,21.22
2023-02-15T17:57:41.424Z,21.21
2023-02-15T18:00:01.397Z,21.20
2023-02-15T18:02:21.612Z,21.18
2023-02-15T18:04:41.546Z,21.16
2023-02-15T18:07:01.497Z,21.15
2023-02-15T18:09:27.957Z,21.13
2023-02-15T18:11:38.211Z,21.13
2023-02-15T18:13:39.562Z,21.13
2023-02-15T18:15:40.910Z,21.13
2023-02-15T18:17:42.236Z,21.13
2023-02-15T18:19:46.509Z,21.11
2023-02-15T18:21:47.930Z,21.07
2023-02-15T18:23:49.271Z,20.98
2023-02-15T18:25:50.573Z,20.92
2023-02-15T18:27:54.568Z,20.87
2023-02-15T18:29:56.538Z,20.82
2023-02-15T18:31:58.189Z,20.81
2023-02-15T18:33:59.541Z,20.88
2023-02-15T18:36:00.884Z,20.98
2023-02-15T18:38:02.363Z,21.13
2023-02-15T18:40:04.301Z,21.25
2023-02-15T18:42:08.359Z,21.37
2023-02-15T18:44:09.661Z,21.45
2023-02-15T18:46:11.018Z,21.51
2023-02-15T18:48:17.990Z,21.55
2023-02-15T18:50:19.310Z,21.62
2023-02-15T18:52:20.614Z,21.65
2023-02-15T18:54:21.919Z,21.68
2023-02-15T18:56:23.251Z,21.70
2023-02-15T18:58:25.028Z,21.74
2023-02-15T19:00:26.727Z,21.73
2023-02-15T19:02:28.140Z,21.74
2023-02-15T19:04:29.560Z,21.73
2023-02-15T19:06:31.008Z,21.72
2023-02-15T19:08:32.328Z,21.73
2023-02-15T19:10:33.829Z,21.68
2023-02-15T19:12:35.175Z,21.62
2023-02-15T19:14:36.550Z,21.54
2023-02-15T19:16:40.834Z,21.50
2023-02-15T19:18:42.166Z,21.46
2023-02-15T19:20:46.439Z,21.43
2023-02-15T19:22:47.762Z,21.40
2023-02-15T19:24:49.112Z,21.37
2023-02-15T19:26:50.719Z,21.33
2023-02-15T19:28:52.020Z,21.29
2023-02-15T19:30:53.393Z,21.25
2023-02-15T19:32:54.729Z,21.20
2023-02-15T19:34:56.021Z,21.20
2023-02-15T19:36:57.376Z,21.19
2023-02-15T19:38:58.719Z,21.16
2023-02-15T19:41:00.050Z,21.16
2023-02-15T19:43:02.227Z,21.14
2023-02-15T19:45:03.907Z,21.12
2023-02-15T19:47:05.364Z,21.10
2023-02-15T19:49:06.670Z,21.11
2023-02-15T19:51:17.149Z,21.09
2023-02-15T19:53:18.446Z,21.08
2023-02-15T19:55:22.392Z,21.07
2023-02-15T19:57:23.815Z,21.07
2023-02-15T19:59:25.175Z,21.08
2023-02-15T20:01:27.206Z,21.09
2023-02-15T20:03:28.564Z,21.11
2023-02-15T20:05:29.925Z,21.16
2023-02-15T20:07:31.254Z,21.22
2023-02-15T20:09:32.691Z,21.31
2023-02-15T20:11:34.024Z,21.40
2023-02-15T20:13:35.313Z,21.47
2023-02-15T20:15:37.588Z,21.58
2023-02-15T20:17:38.903Z,21.64
2023-02-15T20:19:41.577Z,21.70
2023-02-15T20:21:42.878Z,21.72
2023-02-15T20:23:47.369Z,21.73
2023-02-15T20:25:48.680Z,21.77
2023-02-15T20:27:50.088Z,21.74
2023-02-15T20:29:56.936Z,21.70
2023-02-15T20:32:01.374Z,21.68
2023-02-15T20:34:02.808Z,21.65
2023-02-15T20:36:04.160Z,21.62
2023-02-15T20:38:05.555Z,21.54
2023-02-15T20:40:06.947Z,21.50
2023-02-15T20:42:08.262Z,21.47
2023-02-15T20:44:12.213Z,21.43
2023-02-15T20:46:13.731Z,21.40
2023-02-15T20:48:15.071Z,21.38
2023-02-15T20:50:16.379Z,21.33
2023-02-15T20:52:18.173Z,21.26
2023-02-15T20:54:19.492Z,21.24
2023-02-15T20:56:20.827Z,21.20
2023-02-15T20:58:22.290Z,21.18
2023-02-15T21:00:23.957Z,21.17
2023-02-15T21:02:25.249Z,21.14
2023-02-15T21:04:26.616Z,21.13
2023-02-15T21:06:27.926Z,21.13
2023-02-15T21:08:29.228Z,21.10
2023-02-15T21:10:30.734Z,21.09
2023-02-15T21:12:32.627Z,21.08
2023-02-15T21:14:37.745Z,21.07
2023-02-15T21:16:39.049Z,21.06
2023-02-15T21:18:42.155Z,21.05
2023-02-15T21:20:43.456Z,21.05
2023-02-15T21:22:44.783Z,21.05
2023-02-15T21:24:46.133Z,21.06
2023-02-15T21:26:47.486Z,21.08
2023-02-15T21:28:48.855Z,21.14
2023-02-15T21:30:50.187Z,21.20
2023-02-15T21:32:51.507Z,21.26
2023-02-15T21:34:52.819Z,21.34
2023-02-15T21:36:54.196Z,21.40
2023-02-15T21:38:56.056Z,21.47
2023-02-15T21:41:17.320Z,21.49
2023-02-15T21:43:37.368Z,21.55
2023-02-15T21:45:57.253Z,21.58
2023-02-15T21:48:01.293Z,21.59
2023-02-15T21:50:22.607Z,21.55
2023-02-15T21:52:24.001Z,21.54
2023-02-15T21:54:28.196Z,21.50
2023-02-15T21:56:29.609Z,21.47
2023-02-15T21:58:31.483Z,21.44
2023-02-15T22:00:33.830Z,21.39
2023-02-15T22:02:35.151Z,21.35
2023-02-15T22:04:36.445Z,21.32
2023-02-15T22:06:37.748Z,21.28
2023-02-15T22:08:39.072Z,21.25
2023-02-15T22:10:40.472Z,21.20
2023-02-15T22:12:41.775Z,21.16
2023-02-15T22:14:43.095Z,21.13
2023-02-15T22:16:44.472Z,21.08
2023-02-15T22:18:45.813Z,21.06
2023-02-15T22:20:47.129Z,21.78
2023-02-15T22:22:48.438Z,22.24
2023-02-15T22:24:49.752Z,23.19
2023-02-15T22:26:51.088Z,22.92
2023-02-15T22:28:52.429Z,22.64
2023-02-15T22:30:53.755Z,22.86
2023-02-15T22:32:55.135Z,23.09
2023-02-15T22:34:56.427Z,23.08
2023-02-15T22:36:57.796Z,22.88
2023-02-15T22:38:59.155Z,22.60
2023-02-15T22:41:03.178Z,22.49
2023-02-15T22:43:04.671Z,22.55
2023-02-15T22:45:08.137Z,23.38
2023-02-15T22:47:09.621Z,23.26
2023-02-15T22:49:10.915Z,23.21
2023-02-15T22:51:12.563Z,23.63
2023-02-15T22:53:13.895Z,23.77
2023-02-15T22:55:15.481Z,23.22
2023-02-15T22:57:17.042Z,23.41
2023-02-15T22:59:18.407Z,23.49
2023-02-15T23:01:19.734Z,23.44
2023-02-15T23:03:21.065Z,23.39
2023-02-15T23:05:22.489Z,23.40
2023-02-15T23:07:23.890Z,23.06
2023-02-15T23:09:25.195Z,22.85
2023-02-15T23:11:26.499Z,22.70
2023-02-15T23:13:27.837Z,22.61
2023-02-15T23:15:29.240Z,22.61
2023-02-15T23:17:30.545Z,22.60
2023-02-15T23:19:32.194Z,22.64
2023-02-15T23:21:33.714Z,22.95
2023-02-15T23:23:35.007Z,22.52
2023-02-15T23:25:36.427Z,22.43
2023-02-15T23:27:56.404Z,22.68
2023-02-15T23:29:57.808Z,22.66
2023-02-15T23:31:59.209Z,22.67
2023-02-15T23:34:00.592Z,22.77
2023-02-15T23:36:02.272Z,22.89
2023-02-15T23:38:03.587Z,22.77
2023-02-15T23:40:23.391Z,22.71
2023-02-15T23:42:24.720Z,22.69
2023-02-15T23:44:26.022Z,22.67
2023-02-15T23:46:27.375Z,22.42
2023-02-15T23:48:31.531Z,21.68
2023-02-15T23:50:32.878Z,21.98
2023-02-15T23:52:34.191Z,22.23
2023-02-15T23:54:35.544Z,22.45
2023-02-15T23:56:36.836Z,22.50
2023-02-15T23:58:38.158Z,22.60
